Time;durP1;ratioP1;P1;durP2;ratioP2;P2;SDS_P1;SDS_P2;PMS_P1;PMS_P2;Temp;Humidity;BMP_temperature;BMP_pressure;BME280_temperature;BME280_humidity;BME280_pressure;Samples;Min_cycle;Max_cycle;Signal;HPM_P1;HPM_P2
2023/11/23 00:00:41;;;;;;;17.07;14.00;;;1.50;99.90;;;;;;4935457;29;20846;-70
2023/11/23 00:03:07;;;;;;;16.60;12.67;;;1.50;99.90;;;;;;4935445;29;20652;-69
2023/11/23 00:05:32;;;;;;;20.50;12.80;;;1.50;99.90;;;;;;4933635;29;20213;-70
2023/11/23 00:08:00;;;;;;;16.53;12.53;;;1.40;99.90;;;;;;4935604;29;20256;-70
2023/11/23 00:10:26;;;;;;;17.43;12.93;;;1.30;99.90;;;;;;4930849;29;20186;-70
2023/11/23 00:12:51;;;;;;;19.50;12.37;;;1.30;99.90;;;;;;4927798;29;20442;-69
2023/11/23 00:15:17;;;;;;;19.13;13.80;;;1.30;99.90;;;;;;4932356;29;20433;-70
2023/11/23 00:17:42;;;;;;;18.50;13.13;;;1.20;99.90;;;;;;4925074;29;20640;-69
2023/11/23 00:20:11;;;;;;;16.63;13.63;;;1.30;99.90;;;;;;4935592;29;20665;-70
2023/11/23 00:22:37;;;;;;;15.17;12.53;;;1.30;99.90;;;;;;4931656;29;20200;-71
2023/11/23 00:25:04;;;;;;;16.20;13.23;;;1.20;99.90;;;;;;4921956;29;20992;-69
2023/11/23 00:27:31;;;;;;;19.20;14.20;;;1.20;99.90;;;;;;4931827;29;20952;-69
2023/11/23 00:29:57;;;;;;;19.13;12.83;;;1.20;99.90;;;;;;4932463;29;20442;-69
2023/11/23 00:32:22;;;;;;;18.23;12.07;;;1.10;99.90;;;;;;4935568;29;20818;-70
2023/11/23 00:34:50;;;;;;;17.40;13.60;;;1.00;99.90;;;;;;4940680;29;20193;-69
2023/11/23 00:37:15;;;;;;;20.30;14.87;;;1.10;99.90;;;;;;4936591;29;20220;-69
2023/11/23 00:39:41;;;;;;;16.50;13.23;;;1.10;99.90;;;;;;4936995;29;20917;-69
2023/11/23 00:42:06;;;;;;;20.87;14.53;;;1.10;99.90;;;;;;4930144;29;20248;-69
2023/11/23 00:44:32;;;;;;;18.17;13.63;;;1.10;99.90;;;;;;4936779;29;20209;-69
2023/11/23 00:46:58;;;;;;;22.90;15.57;;;1.20;99.90;;;;;;4943087;29;20213;-69
2023/11/23 00:49:24;;;;;;;18.53;14.37;;;1.20;99.90;;;;;;4933287;29;20477;-69
2023/11/23 00:51:49;;;;;;;21.10;14.60;;;1.20;99.90;;;;;;4935259;29;20181;-69
2023/11/23 00:54:15;;;;;;;21.00;14.27;;;1.20;99.90;;;;;;4934375;29;20533;-69
2023/11/23 00:56:41;;;;;;;17.87;14.10;;;1.20;99.90;;;;;;4930453;29;20218;-69
2023/11/23 00:59:06;;;;;;;17.30;13.80;;;1.30;99.90;;;;;;4930373;29;20205;-69
2023/11/23 01:01:32;;;;;;;18.50;13.87;;;1.30;99.90;;;;;;4936548;29;20189;-70
2023/11/23 01:03:57;;;;;;;19.27;13.30;;;1.40;99.90;;;;;;4933245;29;20249;-70
2023/11/23 01:06:23;;;;;;;19.43;13.20;;;1.40;99.90;;;;;;4935937;29;20240;-69
2023/11/23 01:08:48;;;;;;;28.50;14.60;;;1.40;99.90;;;;;;4931894;29;20709;-70
2023/11/23 01:11:14;;;;;;;17.97;12.77;;;1.50;99.90;;;;;;4934853;29;20178;-70
2023/11/23 01:13:41;;;;;;;17.90;13.60;;;1.60;99.90;;;;;;4934741;29;20672;-70
2023/11/23 01:16:08;;;;;;;16.87;13.27;;;1.60;99.90;;;;;;4933374;29;20484;-70
2023/11/23 01:18:33;;;;;;;18.37;13.73;;;1.50;99.90;;;;;;4928580;29;20837;-70
2023/11/23 01:20:59;;;;;;;17.80;14.00;;;1.60;99.90;;;;;;4935935;29;20504;-70
2023/11/23 01:23:25;;;;;;;23.47;14.90;;;1.60;99.90;;;;;;4935135;29;20186;-69
2023/11/23 01:25:52;;;;;;;19.03;13.53;;;1.60;99.90;;;;;;4935571;29;20854;-69
2023/11/23 01:28:18;;;;;;;17.20;13.33;;;1.70;99.90;;;;;;4935501;29;20665;-69
2023/11/23 01:30:44;;;;;;;19.07;12.37;;;1.80;99.90;;;;;;4934249;29;20433;-70
2023/11/23 01:33:10;;;;;;;20.10;14.63;;;1.80;99.90;;;;;;4934314;29;20185;-70
2023/11/23 01:35:36;;;;;;;17.70;13.20;;;1.80;99.90;;;;;;4935311;29;20433;-70
2023/11/23 01:38:01;;;;;;;17.63;13.50;;;1.80;99.90;;;;;;4935748;29;20465;-71
2023/11/23 01:40:27;;;;;;;17.90;13.23;;;1.80;99.90;;;;;;4935781;29;20186;-70
2023/11/23 01:42:52;;;;;;;18.57;13.57;;;1.80;99.90;;;;;;4935179;29;20269;-70
2023/11/23 01:45:18;;;;;;;17.67;13.60;;;1.80;99.90;;;;;;4934897;29;20209;-70
2023/11/23 01:47:45;;;;;;;18.40;14.47;;;1.80;99.90;;;;;;4943621;29;20213;-70
2023/11/23 01:50:14;;;;;;;17.90;13.80;;;1.80;99.90;;;;;;4927724;29;20185;-71
2023/11/23 01:52:40;;;;;;;20.50;13.30;;;1.70;99.90;;;;;;4928494;29;20952;-70
2023/11/23 01:55:07;;;;;;;21.37;15.03;;;1.70;99.90;;;;;;4934893;29;20932;-71
2023/11/23 01:57:38;;;;;;;16.60;12.63;;;1.80;99.90;;;;;;4925589;29;20513;-70
2023/11/23 02:00:04;;;;;;;19.70;14.50;;;1.70;99.90;;;;;;4933345;29;20449;-70
2023/11/23 02:02:30;;;;;;;16.93;13.37;;;1.70;99.90;;;;;;4922679;29;20441;-71
2023/11/23 02:05:03;;;;;;;19.47;14.10;;;1.70;99.90;;;;;;4934058;29;20512;-70
2023/11/23 02:07:28;;;;;;;17.33;13.43;;;1.70;99.90;;;;;;4930865;29;20485;-70
2023/11/23 02:09:54;;;;;;;20.90;13.73;;;1.60;99.90;;;;;;4931819;29;20488;-70
2023/11/23 02:12:21;;;;;;;17.43;14.40;;;1.60;99.90;;;;;;4928358;29;20190;-71
2023/11/23 02:14:49;;;;;;;18.20;12.90;;;1.60;99.90;;;;;;4928416;29;20551;-70
2023/11/23 02:17:19;;;;;;;16.93;12.63;;;1.60;99.90;;;;;;4926022;29;20481;-70
2023/11/23 02:19:46;;;;;;;16.90;14.37;;;1.50;99.90;;;;;;4930285;29;20441;-70
2023/11/23 02:22:12;;;;;;;20.50;14.70;;;1.50;99.90;;;;;;4949843;29;20512;-70
2023/11/23 02:24:38;;;;;;;19.00;12.87;;;1.50;99.90;;;;;;4931845;29;20556;-70
2023/11/23 02:27:04;;;;;;;19.63;13.37;;;1.50;99.90;;;;;;4931136;29;20206;-71
2023/11/23 02:29:29;;;;;;;20.57;12.40;;;1.40;99.90;;;;;;4931353;29;20501;-70
2023/11/23 02:31:55;;;;;;;19.80;14.50;;;1.40;99.90;;;;;;4931594;29;20256;-71
2023/11/23 02:34:20;;;;;;;18.63;13.83;;;1.40;99.90;;;;;;4923789;29;20281;-71
2023/11/23 02:36:47;;;;;;;16.00;12.63;;;1.40;99.90;;;;;;4931176;29;20650;-70
2023/11/23 02:39:13;;;;;;;19.37;13.63;;;1.40;99.90;;;;;;4929195;29;20563;-70
2023/11/23 02:41:38;;;;;;;18.63;12.10;;;1.40;99.90;;;;;;4933050;29;20444;-70
2023/11/23 02:44:04;;;;;;;17.63;12.70;;;1.40;99.90;;;;;;4932523;29;20449;-70
2023/11/23 02:46:29;;;;;;;17.87;13.30;;;1.30;99.90;;;;;;4928157;29;20205;-70
2023/11/23 02:48:55;;;;;;;17.60;13.47;;;1.30;99.90;;;;;;4928468;29;20265;-70
2023/11/23 02:51:20;;;;;;;15.90;12.90;;;1.30;99.90;;;;;;4926303;29;20228;-70
2023/11/23 02:53:47;;;;;;;16.50;12.50;;;1.20;99.90;;;;;;4928693;29;20820;-70
2023/11/23 02:56:15;;;;;;;18.03;12.80;;;1.20;99.90;;;;;;4927810;29;20178;-70
2023/11/23 02:58:41;;;;;;;17.80;13.57;;;1.20;99.90;;;;;;4932031;29;20507;-70
2023/11/23 03:01:07;;;;;;;18.43;12.87;;;1.10;99.90;;;;;;4926262;29;20434;-71
2023/11/23 03:03:33;;;;;;;17.53;13.03;;;1.10;99.90;;;;;;4927265;29;20436;-71
2023/11/23 03:05:59;;;;;;;22.13;15.30;;;1.10;99.90;;;;;;4936756;29;20207;-71
2023/11/23 03:08:25;;;;;;;19.83;13.23;;;1.10;99.90;;;;;;4933837;29;20718;-71
2023/11/23 03:10:52;;;;;;;23.90;13.63;;;1.10;99.90;;;;;;4924943;29;20521;-71
2023/11/23 03:13:18;;;;;;;15.97;12.90;;;1.10;99.90;;;;;;4922656;29;20185;-71
2023/11/23 03:15:44;;;;;;;21.00;14.20;;;1.10;99.90;;;;;;4931691;29;20460;-71
2023/11/23 03:18:09;;;;;;;22.73;14.10;;;1.10;99.90;;;;;;4937177;29;20964;-71
2023/11/23 03:20:35;;;;;;;21.63;13.90;;;1.10;99.90;;;;;;4941718;29;20189;-71
2023/11/23 03:23:00;;;;;;;22.17;14.20;;;1.10;99.90;;;;;;4924076;29;20178;-71
2023/11/23 03:25:26;;;;;;;21.03;14.87;;;1.10;99.90;;;;;;4931934;29;20213;-71
2023/11/23 03:27:51;;;;;;;17.37;12.77;;;1.10;99.90;;;;;;4937456;29;20205;-71
2023/11/23 03:30:17;;;;;;;17.30;12.93;;;1.10;99.90;;;;;;4950490;29;20177;-70
2023/11/23 03:32:43;;;;;;;21.63;13.40;;;1.10;99.90;;;;;;4926943;29;20213;-71
2023/11/23 03:35:09;;;;;;;19.43;13.30;;;1.10;99.90;;;;;;4929079;29;20190;-70
2023/11/23 03:37:35;;;;;;;17.77;12.60;;;1.10;99.90;;;;;;4923839;29;20218;-71
2023/11/23 03:40:02;;;;;;;16.83;12.97;;;1.00;99.90;;;;;;4933073;29;21073;-70
2023/11/23 03:42:27;;;;;;;18.10;12.63;;;1.10;99.90;;;;;;4949759;29;20200;-70
2023/11/23 03:44:53;;;;;;;20.40;12.73;;;1.00;99.90;;;;;;4935192;29;20461;-70
2023/11/23 03:47:18;;;;;;;15.80;11.50;;;0.90;99.90;;;;;;4932195;29;20205;-70
2023/11/23 03:49:45;;;;;;;17.77;13.27;;;0.90;99.90;;;;;;4934850;29;20179;-70
2023/11/23 03:52:11;;;;;;;17.93;12.20;;;0.90;99.90;;;;;;4935747;29;20178;-70
2023/11/23 03:54:37;;;;;;;16.77;11.90;;;1.00;99.90;;;;;;4926871;29;20991;-70
2023/11/23 03:57:04;;;;;;;17.67;11.40;;;1.00;99.90;;;;;;4929712;29;20536;-70
2023/11/23 03:59:29;;;;;;;18.00;13.00;;;1.00;99.90;;;;;;4931521;29;20182;-70
2023/11/23 04:01:55;;;;;;;17.27;12.27;;;1.00;99.90;;;;;;4931262;29;20452;-70
2023/11/23 04:04:20;;;;;;;16.30;12.27;;;1.00;99.90;;;;;;4935328;29;20235;-70
2023/11/23 04:06:46;;;;;;;17.37;11.97;;;0.90;99.90;;;;;;4934639;29;20596;-70
2023/11/23 04:09:12;;;;;;;19.77;13.70;;;0.90;99.90;;;;;;4931354;29;20261;-70
2023/11/23 04:11:38;;;;;;;20.70;12.63;;;1.00;99.90;;;;;;4948074;29;20205;-70
2023/11/23 04:14:03;;;;;;;15.97;11.60;;;0.90;99.90;;;;;;4929251;29;20961;-70
2023/11/23 04:16:29;;;;;;;17.63;11.43;;;0.90;99.90;;;;;;4927192;29;20201;-71
2023/11/23 04:18:55;;;;;;;13.37;11.27;;;0.90;99.90;;;;;;4953142;28;20173;-70
2023/11/23 04:21:20;;;;;;;23.43;12.80;;;1.00;99.90;;;;;;4930824;29;20230;-70
2023/11/23 04:23:46;;;;;;;15.00;11.07;;;1.00;99.90;;;;;;4918930;29;20183;-70
2023/11/23 04:26:12;;;;;;;17.23;11.80;;;1.00;99.90;;;;;;4932746;29;20461;-70
2023/11/23 04:28:39;;;;;;;15.07;10.43;;;1.00;99.90;;;;;;4935842;29;20190;-70
2023/11/23 04:31:05;;;;;;;18.43;11.33;;;1.00;99.90;;;;;;4928693;29;20192;-70
2023/11/23 04:33:31;;;;;;;13.33;10.90;;;0.90;99.90;;;;;;4933504;29;20512;-71
2023/11/23 04:35:57;;;;;;;13.63;10.43;;;0.90;99.90;;;;;;4928272;29;20574;-71
2023/11/23 04:38:22;;;;;;;15.70;11.77;;;0.90;99.90;;;;;;4928880;29;20479;-70
2023/11/23 04:40:48;;;;;;;17.30;10.27;;;0.90;99.90;;;;;;4935072;29;20213;-70
2023/11/23 04:43:14;;;;;;;16.10;11.20;;;0.90;99.90;;;;;;4925126;29;20265;-70
2023/11/23 04:45:40;;;;;;;17.07;10.33;;;0.80;99.90;;;;;;4920258;29;20198;-70
2023/11/23 04:48:06;;;;;;;16.03;10.93;;;0.80;99.90;;;;;;4934900;29;20261;-70
2023/11/23 04:50:33;;;;;;;13.30;9.83;;;0.80;99.90;;;;;;4935385;29;20448;-70
2023/11/23 04:52:58;;;;;;;17.83;11.47;;;0.80;99.90;;;;;;4925553;29;20430;-70
2023/11/23 04:55:24;;;;;;;15.40;10.33;;;0.70;99.90;;;;;;4922230;29;20422;-70
2023/11/23 04:57:50;;;;;;;15.53;11.37;;;0.70;99.90;;;;;;4933502;29;20235;-71
2023/11/23 05:00:15;;;;;;;17.67;11.67;;;0.70;99.90;;;;;;4934086;29;20503;-70
2023/11/23 05:02:43;;;;;;;17.80;10.60;;;0.70;99.90;;;;;;4935483;29;20727;-70
2023/11/23 05:05:14;;;;;;;15.60;10.17;;;0.70;99.90;;;;;;4935547;29;20205;-70
2023/11/23 05:07:40;;;;;;;18.03;11.33;;;0.70;99.90;;;;;;4926172;29;20477;-71
2023/11/23 05:10:09;;;;;;;14.67;10.23;;;0.80;99.90;;;;;;4933473;29;20456;-71
2023/11/23 05:12:35;;;;;;;17.63;10.47;;;0.70;99.90;;;;;;4933652;29;20185;-70
2023/11/23 05:15:01;;;;;;;15.70;11.17;;;0.70;99.90;;;;;;4933550;29;20465;-70
2023/11/23 05:17:26;;;;;;;16.40;11.20;;;0.70;99.90;;;;;;4930780;29;20899;-70
2023/11/23 05:19:52;;;;;;;16.20;10.57;;;0.70;99.90;;;;;;4933134;29;20464;-71
2023/11/23 05:22:17;;;;;;;17.87;10.33;;;0.70;99.90;;;;;;4930437;29;20685;-70
2023/11/23 05:24:43;;;;;;;15.33;10.60;;;0.70;99.90;;;;;;4933305;29;20233;-70
2023/11/23 05:27:08;;;;;;;17.40;10.93;;;0.70;99.90;;;;;;4933482;29;20248;-70
2023/11/23 05:29:34;;;;;;;13.20;9.70;;;0.70;99.90;;;;;;4929647;29;20198;-70
2023/11/23 05:32:00;;;;;;;13.57;10.17;;;0.70;99.90;;;;;;4932867;29;20185;-70
2023/11/23 05:34:25;;;;;;;18.50;10.20;;;0.70;99.90;;;;;;4930111;29;20269;-70
2023/11/23 05:36:51;;;;;;;12.47;9.50;;;0.80;99.90;;;;;;4924006;29;20218;-70
2023/11/23 05:39:17;;;;;;;14.20;9.73;;;0.70;99.90;;;;;;4927765;29;20193;-70
2023/11/23 05:41:43;;;;;;;14.20;10.33;;;0.70;99.90;;;;;;4931604;29;20409;-70
2023/11/23 05:44:08;;;;;;;12.70;9.83;;;0.70;99.90;;;;;;4927193;29;20421;-70
2023/11/23 05:46:34;;;;;;;14.50;10.13;;;0.70;99.90;;;;;;4926705;29;20238;-71
2023/11/23 05:48:59;;;;;;;12.27;10.20;;;0.70;99.90;;;;;;4934171;29;20182;-70
2023/11/23 05:51:25;;;;;;;15.20;9.67;;;0.70;99.90;;;;;;4931109;29;20211;-70
2023/11/23 05:53:50;;;;;;;12.60;8.67;;;0.70;99.90;;;;;;4930880;29;20218;-70
2023/11/23 05:56:16;;;;;;;13.73;9.67;;;0.70;99.90;;;;;;4922392;29;20178;-70
2023/11/23 05:58:42;;;;;;;16.90;10.80;;;0.70;99.90;;;;;;4918638;29;20200;-71
2023/11/23 06:01:07;;;;;;;13.50;9.37;;;0.80;99.90;;;;;;4928848;29;20446;-71
2023/11/23 06:03:33;;;;;;;14.10;8.80;;;0.80;99.90;;;;;;4933494;29;20699;-71
2023/11/23 06:05:58;;;;;;;16.07;9.87;;;0.80;99.90;;;;;;4930271;29;20217;-71
2023/11/23 06:08:26;;;;;;;13.40;9.40;;;0.70;99.90;;;;;;4927770;29;20198;-71
2023/11/23 06:10:51;;;;;;;13.17;9.10;;;0.60;99.90;;;;;;4932803;29;20276;-71
2023/11/23 06:13:17;;;;;;;13.37;8.83;;;0.60;99.90;;;;;;4929601;29;20589;-71
2023/11/23 06:15:43;;;;;;;11.20;8.23;;;0.60;99.90;;;;;;4936064;29;20677;-71
2023/11/23 06:18:08;;;;;;;15.73;10.00;;;0.70;99.90;;;;;;4925702;29;20280;-71
2023/11/23 06:20:34;;;;;;;10.90;9.07;;;0.70;99.90;;;;;;4931836;29;20327;-71
2023/11/23 06:22:59;;;;;;;13.40;8.90;;;0.70;99.90;;;;;;4933621;29;20182;-71
2023/11/23 06:25:25;;;;;;;10.07;8.40;;;0.70;99.90;;;;;;4926316;29;20218;-71
2023/11/23 06:27:51;;;;;;;15.40;9.70;;;0.80;99.90;;;;;;4926568;29;20194;-71
2023/11/23 06:30:17;;;;;;;11.60;8.67;;;0.70;99.90;;;;;;4932955;29;20191;-71
2023/11/23 06:32:43;;;;;;;14.30;8.63;;;0.70;99.90;;;;;;4941524;29;20217;-71
2023/11/23 06:35:09;;;;;;;12.73;8.10;;;0.70;99.90;;;;;;4933508;29;20552;-71
2023/11/23 06:37:35;;;;;;;8.93;7.83;;;0.70;99.90;;;;;;4927124;29;20217;-71
2023/11/23 06:40:00;;;;;;;10.67;8.47;;;0.70;99.90;;;;;;4924215;29;20528;-71
2023/11/23 06:42:26;;;;;;;14.67;9.17;;;0.70;99.90;;;;;;4934473;29;20174;-71
2023/11/23 06:44:53;;;;;;;10.13;7.23;;;0.70;99.90;;;;;;4931530;29;20204;-71
2023/11/23 06:47:19;;;;;;;11.60;8.47;;;0.70;99.90;;;;;;4927053;29;20198;-71
2023/11/23 06:49:45;;;;;;;11.80;8.20;;;0.80;99.90;;;;;;4933774;29;20452;-71
2023/11/23 06:52:10;;;;;;;12.47;9.00;;;0.80;99.90;;;;;;4932589;29;20184;-71
2023/11/23 06:54:36;;;;;;;12.73;8.70;;;0.80;99.90;;;;;;4930012;29;20633;-71
2023/11/23 06:57:02;;;;;;;11.13;6.90;;;0.90;99.90;;;;;;4918222;29;20225;-71
2023/11/23 06:59:28;;;;;;;9.97;6.90;;;0.90;99.90;;;;;;4929499;29;20241;-71
2023/11/23 07:01:53;;;;;;;8.23;6.03;;;0.90;99.90;;;;;;4929486;29;20273;-71
2023/11/23 07:04:21;;;;;;;11.33;7.43;;;1.00;99.90;;;;;;4931656;29;20220;-71
2023/11/23 07:06:46;;;;;;;10.43;8.47;;;1.00;99.90;;;;;;4929105;29;20201;-70
2023/11/23 07:09:13;;;;;;;8.33;6.50;;;1.10;99.90;;;;;;4922253;29;20449;-71
2023/11/23 07:11:40;;;;;;;9.00;7.00;;;1.20;99.90;;;;;;4926183;29;20599;-71
2023/11/23 07:14:06;;;;;;;6.70;5.33;;;1.20;99.90;;;;;;4934820;29;20482;-71
2023/11/23 07:16:31;;;;;;;7.83;6.53;;;1.20;99.90;;;;;;4939669;29;20543;-71
2023/11/23 07:18:58;;;;;;;6.97;5.37;;;1.30;99.90;;;;;;4934425;29;20440;-71
2023/11/23 07:21:23;;;;;;;9.90;5.63;;;1.30;99.90;;;;;;4939297;29;20178;-71
2023/11/23 07:23:49;;;;;;;8.53;6.77;;;1.30;99.90;;;;;;4930414;29;20813;-71
2023/11/23 07:26:14;;;;;;;8.70;5.90;;;1.40;99.90;;;;;;4932759;29;20697;-71
2023/11/23 07:28:40;;;;;;;8.33;6.20;;;1.70;99.90;;;;;;4934211;29;20189;-71
2023/11/23 07:31:08;;;;;;;7.23;6.60;;;2.40;99.90;;;;;;4932472;29;20180;-71
2023/11/23 07:33:35;;;;;;;6.93;4.93;;;3.10;99.90;;;;;;4934428;29;20185;-71
2023/11/23 07:36:04;;;;;;;5.80;5.10;;;3.80;99.90;;;;;;4933578;29;21012;-71
2023/11/23 07:38:30;;;;;;;6.53;5.83;;;4.30;99.90;;;;;;4948846;23;20221;-72
2023/11/23 07:40:57;;;;;;;4.87;4.37;;;4.40;99.90;;;;;;4932063;29;20948;-72
2023/11/23 07:43:23;;;;;;;5.77;5.20;;;4.30;99.90;;;;;;4932483;29;20948;-73
2023/11/23 07:45:49;;;;;;;8.50;5.20;;;4.20;99.90;;;;;;4932419;29;20980;-74
2023/11/23 07:48:14;;;;;;;7.93;4.97;;;4.20;99.90;;;;;;4932358;29;20472;-73
2023/11/23 07:50:40;;;;;;;8.73;5.90;;;4.00;99.90;;;;;;4933602;29;20657;-73
2023/11/23 07:53:07;;;;;;;10.40;7.00;;;3.70;99.90;;;;;;4935116;29;20193;-72
2023/11/23 07:55:32;;;;;;;10.20;7.63;;;3.60;99.90;;;;;;4935345;29;20648;-73
2023/11/23 07:57:58;;;;;;;6.20;5.50;;;3.30;99.90;;;;;;4932263;29;20461;-72
2023/11/23 08:00:25;;;;;;;6.23;5.20;;;3.10;99.90;;;;;;4933590;29;20256;-72
2023/11/23 08:02:51;;;;;;;6.50;4.90;;;2.90;99.90;;;;;;4934257;29;20269;-72
2023/11/23 08:05:16;;;;;;;5.30;4.80;;;3.50;99.90;;;;;;4935531;29;20548;-72
2023/11/23 08:07:42;;;;;;;5.20;4.63;;;4.90;99.90;;;;;;4936068;29;20213;-72
2023/11/23 08:10:08;;;;;;;5.40;4.90;;;6.50;99.90;;;;;;4951943;29;20554;-72
2023/11/23 08:12:34;;;;;;;8.00;5.77;;;6.80;99.90;;;;;;4936291;29;20264;-72
2023/11/23 08:14:59;;;;;;;4.53;4.10;;;6.10;99.90;;;;;;4938380;29;20445;-72
2023/11/23 08:17:26;;;;;;;6.53;5.00;;;5.30;99.90;;;;;;4934130;29;20707;-72
2023/11/23 08:19:52;;;;;;;9.70;5.17;;;4.60;99.90;;;;;;4936421;29;20201;-72
2023/11/23 08:22:20;;;;;;;5.80;4.70;;;4.20;99.90;;;;;;4934601;29;20962;-72
2023/11/23 08:24:46;;;;;;;4.30;3.77;;;4.10;99.90;;;;;;4934798;29;20662;-71
2023/11/23 08:27:11;;;;;;;5.63;4.40;;;3.90;99.90;;;;;;4935545;29;20495;-72
2023/11/23 08:29:38;;;;;;;7.23;4.00;;;3.80;99.90;;;;;;4936746;29;20182;-72
2023/11/23 08:32:04;;;;;;;5.67;4.93;;;3.90;99.90;;;;;;4935735;29;20648;-71
2023/11/23 08:34:30;;;;;;;4.87;3.87;;;4.10;99.90;;;;;;4936332;29;20442;-72
2023/11/23 08:36:56;;;;;;;5.63;4.30;;;4.00;99.90;;;;;;4934903;29;21300;-72
2023/11/23 08:39:21;;;;;;;7.27;4.50;;;4.00;99.90;;;;;;4936204;29;20441;-72
2023/11/23 08:41:47;;;;;;;6.10;4.80;;;3.90;99.90;;;;;;4935530;29;20189;-72
2023/11/23 08:44:15;;;;;;;6.07;5.20;;;4.10;99.90;;;;;;4935251;29;20192;-72
2023/11/23 08:46:41;;;;;;;6.73;5.07;;;4.30;99.90;;;;;;4933762;29;20189;-71
2023/11/23 08:49:08;;;;;;;5.03;4.53;;;4.50;99.90;;;;;;4935867;29;20438;-72
2023/11/23 08:51:34;;;;;;;5.47;4.10;;;4.60;99.90;;;;;;4935661;29;20446;-72
2023/11/23 08:53:59;;;;;;;9.90;4.23;;;4.70;99.90;;;;;;4934629;29;20429;-71
2023/11/23 08:56:25;;;;;;;7.47;5.60;;;4.40;99.90;;;;;;4934815;29;20189;-72
2023/11/23 08:58:50;;;;;;;5.33;4.10;;;4.40;99.90;;;;;;4934601;29;20201;-72
2023/11/23 09:01:16;;;;;;;5.37;4.27;;;4.40;99.90;;;;;;4934896;29;20182;-71
2023/11/23 09:03:42;;;;;;;5.33;4.17;;;4.40;99.90;;;;;;4934905;29;20577;-72
2023/11/23 09:06:11;;;;;;;7.87;5.70;;;4.20;99.90;;;;;;4932449;29;20854;-72
2023/11/23 09:08:37;;;;;;;6.47;5.43;;;4.10;99.90;;;;;;4933757;29;20202;-72
2023/11/23 09:11:02;;;;;;;10.27;5.47;;;4.10;99.90;;;;;;4932375;29;20820;-72
2023/11/23 09:13:29;;;;;;;4.20;3.80;;;4.20;99.90;;;;;;4933210;29;20201;-73
2023/11/23 09:15:55;;;;;;;6.73;5.37;;;4.50;99.90;;;;;;4932308;29;20546;-73
2023/11/23 09:18:21;;;;;;;8.63;4.60;;;4.70;99.90;;;;;;4929234;29;20465;-72
2023/11/23 09:20:47;;;;;;;4.80;4.40;;;5.00;99.90;;;;;;4933533;29;20233;-72
2023/11/23 09:23:16;;;;;;;5.67;4.80;;;5.00;99.90;;;;;;4934691;29;20437;-72
2023/11/23 09:25:43;;;;;;;10.33;4.30;;;5.10;99.90;;;;;;4929586;29;20472;-73
2023/11/23 09:28:09;;;;;;;6.17;4.70;;;4.90;99.90;;;;;;4934078;29;20465;-73
2023/11/23 09:30:34;;;;;;;5.00;4.50;;;4.90;99.90;;;;;;4935030;29;20437;-72
2023/11/23 09:33:00;;;;;;;5.43;4.83;;;4.80;99.90;;;;;;4934076;29;20948;-72
2023/11/23 09:35:26;;;;;;;6.67;4.83;;;4.70;99.90;;;;;;4928574;29;20209;-73
2023/11/23 09:37:54;;;;;;;9.00;4.47;;;4.70;99.90;;;;;;4935428;29;20639;-73
2023/11/23 09:40:20;;;;;;;5.03;4.10;;;4.70;99.90;;;;;;4936172;29;20629;-73
2023/11/23 09:42:48;;;;;;;6.30;4.47;;;4.80;99.90;;;;;;4941685;29;20437;-73
2023/11/23 09:45:18;;;;;;;3.70;3.17;;;4.90;99.90;;;;;;4947889;29;20505;-73
2023/11/23 09:47:46;;;;;;;4.00;3.50;;;5.00;99.90;;;;;;4932742;29;20555;-71
2023/11/23 09:50:12;;;;;;;4.43;3.93;;;5.10;99.90;;;;;;4948999;29;20849;-74
2023/11/23 09:52:37;;;;;;;4.70;3.33;;;5.20;99.90;;;;;;4932892;29;20441;-73
2023/11/23 09:55:07;;;;;;;4.83;4.33;;;5.30;99.90;;;;;;4931407;29;20201;-72
2023/11/23 09:57:32;;;;;;;4.13;3.33;;;5.40;99.90;;;;;;4933594;29;20690;-72
2023/11/23 09:59:58;;;;;;;4.60;3.70;;;5.60;99.90;;;;;;4932900;29;20437;-71
2023/11/23 10:02:24;;;;;;;4.20;3.67;;;5.60;99.90;;;;;;4934384;29;20665;-72
2023/11/23 10:04:52;;;;;;;5.13;4.20;;;5.60;99.90;;;;;;4932656;29;20608;-71
2023/11/23 10:07:18;;;;;;;4.67;3.53;;;5.70;99.90;;;;;;4934461;29;20237;-71
2023/11/23 10:09:44;;;;;;;4.60;3.87;;;5.70;99.90;;;;;;4931925;29;20963;-70
2023/11/23 10:12:10;;;;;;;3.37;3.07;;;5.60;99.90;;;;;;4934180;29;20434;-71
2023/11/23 10:14:36;;;;;;;4.50;3.80;;;5.60;99.90;;;;;;4933899;29;20866;-73
2023/11/23 10:17:02;;;;;;;3.67;3.37;;;5.60;99.90;;;;;;4932681;29;20489;-72
2023/11/23 10:19:27;;;;;;;3.90;3.50;;;5.70;99.90;;;;;;4934233;29;20219;-71
2023/11/23 10:21:58;;;;;;;3.83;3.43;;;5.90;99.90;;;;;;4932398;29;20182;-72
2023/11/23 10:24:24;;;;;;;4.80;3.60;;;5.90;99.90;;;;;;4934883;29;20186;-71
2023/11/23 10:26:51;;;;;;;4.20;3.47;;;5.90;99.90;;;;;;4935881;29;20464;-71
2023/11/23 10:29:18;;;;;;;6.47;4.33;;;6.00;99.90;;;;;;4933391;29;20925;-72
2023/11/23 10:31:43;;;;;;;4.37;3.90;;;5.90;99.90;;;;;;4933826;29;20520;-72
2023/11/23 10:34:10;;;;;;;4.43;4.03;;;5.80;99.90;;;;;;4932459;29;20478;-72
2023/11/23 10:36:40;;;;;;;5.00;3.87;;;5.80;99.90;;;;;;4933790;29;20188;-73
2023/11/23 10:39:11;;;;;;;3.70;3.13;;;5.90;99.90;;;;;;4948540;29;20770;-72
2023/11/23 10:41:41;;;;;;;3.70;3.40;;;6.00;99.90;;;;;;4933419;29;20458;-71
2023/11/23 10:44:08;;;;;;;7.40;5.10;;;6.10;99.90;;;;;;4932957;29;20437;-72
2023/11/23 10:46:38;;;;;;;3.53;3.10;;;6.00;99.90;;;;;;4931688;29;20843;-72
2023/11/23 10:49:06;;;;;;;5.20;4.07;;;6.00;99.90;;;;;;4934006;29;20468;-71
2023/11/23 10:51:34;;;;;;;5.07;3.63;;;5.90;99.90;;;;;;4929863;29;20433;-72
2023/11/23 10:54:00;;;;;;;5.40;3.83;;;5.90;99.90;;;;;;4933844;29;20458;-71
2023/11/23 10:56:29;;;;;;;4.33;3.70;;;5.90;99.90;;;;;;4933693;29;20496;-72
2023/11/23 10:59:00;;;;;;;5.30;4.37;;;6.00;99.90;;;;;;4932902;29;20496;-71
2023/11/23 11:01:27;;;;;;;5.40;3.90;;;6.00;99.90;;;;;;4926839;29;20449;-72
2023/11/23 11:03:54;;;;;;;5.60;5.03;;;6.00;99.90;;;;;;4933629;29;20433;-72
2023/11/23 11:06:21;;;;;;;5.50;5.00;;;6.10;99.90;;;;;;4926591;29;21008;-72
2023/11/23 11:08:48;;;;;;;4.87;4.37;;;6.10;99.90;;;;;;4930573;29;20586;-72
2023/11/23 11:11:21;;;;;;;7.43;4.37;;;6.00;99.90;;;;;;4932261;29;20484;-72
2023/11/23 11:13:47;;;;;;;10.83;4.67;;;6.10;99.90;;;;;;4931376;29;20500;-72
2023/11/23 11:16:14;;;;;;;4.97;4.13;;;6.10;99.90;;;;;;4933665;29;20570;-72
2023/11/23 11:18:49;;;;;;;6.37;4.17;;;6.10;99.90;;;;;;4931237;29;20453;-72
2023/11/23 11:21:18;;;;;;;4.90;4.40;;;6.10;99.90;;;;;;4933798;29;20436;-72
2023/11/23 11:23:51;;;;;;;5.20;3.43;;;6.20;99.90;;;;;;4932443;29;20440;-72
2023/11/23 11:26:18;;;;;;;4.80;4.40;;;6.30;99.90;;;;;;4946920;29;20457;-72
2023/11/23 11:28:57;;;;;;;5.37;3.67;;;6.30;99.90;;;;;;4932723;29;20951;-72
2023/11/23 11:31:37;;;;;;;4.93;4.37;;;6.50;99.90;;;;;;4926183;29;20475;-72
2023/11/23 11:34:19;;;;;;;4.60;4.20;;;6.60;99.90;;;;;;4932152;29;20441;-72
2023/11/23 11:36:59;;;;;;;5.80;3.30;;;6.70;99.90;;;;;;4931146;29;20441;-72
2023/11/23 11:39:41;;;;;;;3.77;3.40;;;6.80;99.90;;;;;;4929774;29;20481;-72
2023/11/23 11:42:10;;;;;;;4.30;3.80;;;6.90;99.90;;;;;;4937199;29;20966;-73
2023/11/23 11:44:42;;;;;;;6.17;3.87;;;6.90;99.90;;;;;;4937067;29;20472;-72
2023/11/23 11:47:08;;;;;;;6.07;4.97;;;6.90;99.90;;;;;;4936134;29;20860;-72
2023/11/23 11:49:34;;;;;;;5.00;4.07;;;6.80;99.90;;;;;;4936941;29;20449;-72
2023/11/23 11:52:00;;;;;;;6.03;3.87;;;6.80;99.90;;;;;;4938005;29;20181;-72
2023/11/23 11:54:26;;;;;;;4.20;3.80;;;6.80;99.90;;;;;;4941010;29;20998;-72
2023/11/23 11:56:52;;;;;;;4.57;3.77;;;6.80;99.90;;;;;;4937208;29;20186;-72
2023/11/23 11:59:22;;;;;;;6.57;4.53;;;6.90;99.90;;;;;;4936718;29;20216;-72
2023/11/23 12:01:49;;;;;;;4.57;3.10;;;6.90;99.90;;;;;;4936828;29;20528;-71
2023/11/23 12:04:21;;;;;;;5.53;3.97;;;6.90;99.90;;;;;;4936296;29;20463;-69
2023/11/23 12:06:52;;;;;;;5.50;3.80;;;6.90;99.90;;;;;;4935581;29;20524;-69
2023/11/23 12:09:19;;;;;;;17.07;7.43;;;7.00;99.90;;;;;;4936244;29;20445;-70
2023/11/23 12:12:15;;;;;;;5.80;4.03;;;7.00;99.90;;;;;;4936296;29;20444;-69
2023/11/23 12:14:44;;;;;;;3.83;3.43;;;7.00;99.90;;;;;;4932570;29;20457;-69
2023/11/23 12:17:11;;;;;;;3.93;2.97;;;7.10;99.90;;;;;;4950964;29;20493;-69
2023/11/23 12:19:37;;;;;;;3.17;2.87;;;7.20;99.90;;;;;;4936348;29;20500;-69
2023/11/23 12:22:02;;;;;;;5.60;2.80;;;7.30;99.90;;;;;;4935707;29;20441;-70
2023/11/23 12:24:30;;;;;;;3.20;2.80;;;7.50;99.90;;;;;;4934436;29;20456;-69
2023/11/23 12:26:56;;;;;;;2.93;2.73;;;7.60;99.90;;;;;;4936689;29;20206;-70
2023/11/23 12:29:24;;;;;;;5.90;3.07;;;7.70;99.90;;;;;;4936275;29;20445;-69
2023/11/23 12:31:50;;;;;;;2.80;2.57;;;7.80;99.90;;;;;;4937933;29;20452;-69
2023/11/23 12:34:16;;;;;;;2.67;2.47;;;7.80;99.90;;;;;;4935465;29;20500;-69
2023/11/23 12:36:43;;;;;;;3.20;2.73;;;7.80;99.90;;;;;;4931062;29;20456;-70
2023/11/23 12:39:09;;;;;;;4.50;4.10;;;7.80;99.90;;;;;;4935707;29;20186;-70
2023/11/23 12:41:35;;;;;;;3.43;3.10;;;7.90;99.90;;;;;;4935793;29;20951;-69